Time;durP1;ratioP1;P1;durP2;ratioP2;P2;SDS_P1;SDS_P2;PMS_P1;PMS_P2;Temp;Humidity;BMP_temperature;BMP_pressure;BME280_temperature;BME280_humidity;BME280_pressure;Samples;Min_cycle;Max_cycle;Signal;HPM_P1;HPM_P2
2022/10/16 00:01:13;;;;;;;67.67;10.30;;;14.80;99.90;;;;;;5075361;28;20403;-87
2022/10/16 00:03:40;;;;;;;67.20;10.57;;;14.80;99.90;;;;;;5075466;28;20176;-87
2022/10/16 00:06:07;;;;;;;67.40;9.20;;;14.80;99.90;;;;;;5075746;28;20599;-88
2022/10/16 00:08:33;;;;;;;67.70;9.27;;;14.80;99.90;;;;;;5075200;28;20518;-88
2022/10/16 00:11:11;;;;;;;66.70;9.20;;;14.70;99.90;;;;;;5075149;28;20457;-88
2022/10/16 00:13:38;;;;;;;66.77;10.13;;;14.70;99.90;;;;;;5075049;28;20480;-88
2022/10/16 00:16:04;;;;;;;68.50;10.13;;;14.60;99.90;;;;;;5075431;28;20402;-88
2022/10/16 00:18:30;;;;;;;72.70;9.93;;;14.60;99.90;;;;;;5057480;28;20426;-88
2022/10/16 00:21:09;;;;;;;67.90;11.47;;;14.50;99.90;;;;;;5075258;28;20481;-88
2022/10/16 00:23:35;;;;;;;68.53;11.63;;;14.50;99.90;;;;;;5075656;28;20386;-88
2022/10/16 00:26:04;;;;;;;67.60;10.20;;;14.50;99.90;;;;;;5075552;28;20406;-88
2022/10/16 00:28:30;;;;;;;67.10;9.83;;;14.40;99.90;;;;;;5076223;28;20427;-87
2022/10/16 00:30:57;;;;;;;67.63;10.13;;;14.40;99.90;;;;;;5076446;28;20453;-88
2022/10/16 00:33:23;;;;;;;67.27;10.93;;;14.40;99.90;;;;;;5076026;28;20692;-88
2022/10/16 00:35:49;;;;;;;69.00;11.60;;;14.30;99.90;;;;;;5074849;28;20770;-88
2022/10/16 00:38:14;;;;;;;68.00;12.10;;;14.30;99.90;;;;;;5074609;28;20426;-88
2022/10/16 00:40:40;;;;;;;71.80;11.10;;;14.30;99.90;;;;;;5074628;28;20419;-88
2022/10/16 00:43:33;;;;;;;68.27;12.83;;;14.30;99.90;;;;;;5057228;28;20411;-87
2022/10/16 00:46:01;;;;;;;70.23;15.20;;;14.20;99.90;;;;;;5047072;28;20217;-88
2022/10/16 00:48:27;;;;;;;69.20;15.40;;;14.20;99.90;;;;;;5078558;28;20470;-88
2022/10/16 00:50:53;;;;;;;71.27;17.00;;;14.20;99.90;;;;;;5056965;28;20558;-88
2022/10/16 00:53:19;;;;;;;68.07;12.40;;;14.20;99.90;;;;;;5074394;28;20402;-88
2022/10/16 00:55:45;;;;;;;68.63;12.10;;;14.20;99.90;;;;;;5073545;28;20398;-88
2022/10/16 00:58:11;;;;;;;68.60;13.03;;;14.20;99.90;;;;;;5074051;28;20483;-88
2022/10/16 01:00:37;;;;;;;69.77;16.70;;;14.20;99.90;;;;;;5074425;28;20410;-88
2022/10/16 01:03:21;;;;;;;69.00;13.30;;;14.10;99.90;;;;;;5074042;28;20402;-88
2022/10/16 01:05:59;;;;;;;68.03;12.80;;;14.10;99.90;;;;;;5074383;28;20144;-88
2022/10/16 01:08:39;;;;;;;69.07;13.20;;;14.10;99.90;;;;;;5073938;28;20935;-88
2022/10/16 01:11:38;;;;;;;71.17;11.73;;;14.10;99.90;;;;;;5074122;28;20427;-88
2022/10/16 01:14:19;;;;;;;68.07;10.83;;;14.20;99.90;;;;;;5047095;28;20418;-88
2022/10/16 01:16:53;;;;;;;69.20;12.30;;;14.10;99.90;;;;;;5074110;28;20366;-88
2022/10/16 01:19:56;;;;;;;67.90;11.00;;;14.10;99.90;;;;;;5073819;28;20417;-88
2022/10/16 01:22:30;;;;;;;68.00;12.33;;;14.10;99.90;;;;;;5074517;28;20452;-88
2022/10/16 01:25:05;;;;;;;69.70;10.80;;;14.00;99.90;;;;;;5074046;28;20818;-88
2022/10/16 01:27:34;;;;;;;67.60;10.57;;;14.10;99.90;;;;;;5073792;28;20435;-88
2022/10/16 01:30:22;;;;;;;69.43;9.53;;;14.00;99.90;;;;;;5073509;28;20995;-87
2022/10/16 01:33:03;;;;;;;71.00;9.67;;;13.90;99.90;;;;;;5073620;28;20421;-87
2022/10/16 01:35:39;;;;;;;72.93;12.10;;;13.90;99.90;;;;;;5073748;28;20473;-88
2022/10/16 01:38:21;;;;;;;69.70;16.30;;;13.90;99.90;;;;;;5073699;28;20420;-88
2022/10/16 01:40:51;;;;;;;69.50;15.97;;;13.80;99.90;;;;;;5073431;28;20781;-88
2022/10/16 01:43:28;;;;;;;68.83;15.30;;;13.80;99.90;;;;;;5074235;28;20383;-87
2022/10/16 01:45:54;;;;;;;71.27;15.97;;;13.80;99.90;;;;;;5055453;28;20391;-87
2022/10/16 01:48:22;;;;;;;69.87;14.37;;;13.80;99.90;;;;;;5073253;28;20429;-88
2022/10/16 01:51:00;;;;;;;68.50;12.50;;;13.80;99.90;;;;;;5073159;28;20511;-88
2022/10/16 01:53:26;;;;;;;69.77;13.10;;;13.80;99.90;;;;;;5055600;28;20398;-88
2022/10/16 01:55:54;;;;;;;69.97;13.50;;;13.70;99.90;;;;;;5073300;28;20398;-88
2022/10/16 01:58:21;;;;;;;67.97;11.67;;;13.70;99.90;;;;;;5073382;28;20955;-88
2022/10/16 02:00:48;;;;;;;68.73;13.27;;;13.70;99.90;;;;;;5055292;28;20481;-88
2022/10/16 02:03:16;;;;;;;72.33;15.27;;;13.70;99.90;;;;;;5073679;28;20406;-88
2022/10/16 02:05:46;;;;;;;72.03;19.60;;;13.70;99.90;;;;;;5055027;28;20410;-88
2022/10/16 02:08:12;;;;;;;71.40;17.80;;;13.70;99.90;;;;;;5055283;28;20516;-88
2022/10/16 02:10:39;;;;;;;70.87;18.47;;;13.70;99.90;;;;;;5055095;28;20536;-88
2022/10/16 02:13:41;;;;;;;71.90;18.33;;;13.70;99.90;;;;;;5055333;28;20488;-88
2022/10/16 02:16:09;;;;;;;74.13;20.10;;;13.80;99.90;;;;;;5074034;28;20394;-88
2022/10/16 02:18:34;;;;;;;71.50;20.13;;;13.80;99.90;;;;;;5073957;28;20437;-88
2022/10/16 02:21:25;;;;;;;72.50;19.10;;;13.80;99.90;;;;;;5073242;28;20398;-88
2022/10/16 02:24:15;;;;;;;73.50;23.63;;;13.80;99.90;;;;;;5073312;28;20152;-88
2022/10/16 02:27:05;;;;;;;72.30;26.17;;;13.70;99.90;;;;;;5072934;28;20469;-88
2022/10/16 02:29:35;;;;;;;73.87;28.53;;;13.70;99.90;;;;;;5072705;28;20433;-88
2022/10/16 02:32:04;;;;;;;72.37;24.53;;;13.80;99.90;;;;;;5072855;28;20452;-88
2022/10/16 02:34:32;;;;;;;72.47;26.07;;;13.80;99.90;;;;;;5055741;28;20406;-88
2022/10/16 02:36:59;;;;;;;72.20;22.60;;;13.80;99.90;;;;;;5055413;28;20411;-88
2022/10/16 02:39:27;;;;;;;71.27;19.93;;;13.80;99.90;;;;;;5072712;28;20460;-88
2022/10/16 02:41:52;;;;;;;70.67;16.97;;;13.80;99.90;;;;;;5072787;28;20409;-87
2022/10/16 02:44:18;;;;;;;69.57;16.33;;;13.90;99.90;;;;;;5073065;28;20985;-87
2022/10/16 02:46:44;;;;;;;69.27;15.27;;;13.90;99.90;;;;;;5072792;28;20654;-87
2022/10/16 02:49:09;;;;;;;70.53;14.97;;;13.90;99.90;;;;;;5072655;28;20191;-87
2022/10/16 02:51:35;;;;;;;69.00;14.70;;;13.90;99.90;;;;;;5072607;28;20188;-87
2022/10/16 02:54:04;;;;;;;67.57;11.47;;;13.90;99.90;;;;;;5072984;28;20164;-88
2022/10/16 02:56:30;;;;;;;68.70;14.10;;;14.00;99.90;;;;;;5072656;28;20163;-87
2022/10/16 02:58:56;;;;;;;68.07;11.60;;;14.00;99.90;;;;;;5072582;28;20410;-87
2022/10/16 03:01:22;;;;;;;72.67;14.70;;;14.00;99.90;;;;;;5072884;28;20747;-87
2022/10/16 03:03:48;;;;;;;69.47;13.33;;;13.90;99.90;;;;;;5072593;28;20812;-87
2022/10/16 03:06:17;;;;;;;67.87;11.50;;;13.90;99.90;;;;;;5072895;28;20413;-87
2022/10/16 03:08:42;;;;;;;68.47;10.73;;;13.90;99.90;;;;;;5072488;28;20190;-87
2022/10/16 03:11:11;;;;;;;67.10;10.07;;;13.90;99.90;;;;;;5054465;28;20544;-87
2022/10/16 03:13:37;;;;;;;68.60;11.30;;;13.80;99.90;;;;;;5072937;28;20643;-88
2022/10/16 03:16:02;;;;;;;66.63;11.13;;;13.80;99.90;;;;;;5072468;28;20409;-88
2022/10/16 03:18:28;;;;;;;67.30;11.80;;;13.70;99.90;;;;;;5073308;28;20214;-88
2022/10/16 03:20:54;;;;;;;66.50;9.53;;;13.70;99.90;;;;;;5076626;28;20623;-88
2022/10/16 03:23:19;;;;;;;70.23;10.90;;;13.70;99.90;;;;;;5076187;28;20635;-87
2022/10/16 03:25:45;;;;;;;66.47;10.53;;;13.70;99.90;;;;;;5076001;28;20193;-87
2022/10/16 03:28:11;;;;;;;67.27;11.20;;;13.70;99.90;;;;;;5075863;28;20180;-87
2022/10/16 03:30:39;;;;;;;66.73;11.43;;;13.70;99.90;;;;;;5076353;28;20635;-87
2022/10/16 03:33:05;;;;;;;65.97;9.40;;;13.70;99.90;;;;;;5076034;28;20758;-88
2022/10/16 03:35:32;;;;;;;66.80;10.03;;;13.70;99.90;;;;;;5076346;28;20399;-88
2022/10/16 03:37:58;;;;;;;66.73;10.23;;;13.70;99.90;;;;;;5075678;28;20159;-88
2022/10/16 03:40:24;;;;;;;66.60;11.53;;;13.70;99.90;;;;;;5076042;28;20840;-88
2022/10/16 03:42:50;;;;;;;67.37;12.30;;;13.70;99.90;;;;;;5075775;28;20164;-88
2022/10/16 03:45:16;;;;;;;68.30;9.93;;;13.70;99.90;;;;;;5057957;28;20497;-87
2022/10/16 03:47:41;;;;;;;68.67;12.37;;;13.70;99.90;;;;;;5075585;28;20250;-88
2022/10/16 03:50:08;;;;;;;67.67;10.70;;;13.70;99.90;;;;;;5075460;28;20547;-88
2022/10/16 03:52:34;;;;;;;67.17;10.17;;;13.70;99.90;;;;;;5075456;28;20191;-88
2022/10/16 03:55:00;;;;;;;67.97;10.80;;;13.70;99.90;;;;;;5075479;28;20405;-87
2022/10/16 03:57:25;;;;;;;67.90;11.50;;;13.70;99.90;;;;;;5057442;28;20164;-87
2022/10/16 03:59:51;;;;;;;67.10;10.90;;;13.80;99.90;;;;;;5075248;28;20184;-87
2022/10/16 04:02:16;;;;;;;68.00;10.70;;;13.80;99.90;;;;;;5075605;28;20160;-87
2022/10/16 04:04:42;;;;;;;67.27;11.17;;;13.80;99.90;;;;;;5057620;28;20168;-87
2022/10/16 04:07:08;;;;;;;67.67;12.80;;;13.80;99.90;;;;;;5075518;28;20175;-87
2022/10/16 04:09:33;;;;;;;68.60;14.80;;;13.80;99.90;;;;;;5057158;28;20191;-88
2022/10/16 04:11:59;;;;;;;68.83;13.13;;;13.70;99.90;;;;;;5075262;28;20195;-88
2022/10/16 04:14:25;;;;;;;68.03;14.17;;;13.70;99.90;;;;;;5075963;28;20159;-88
2022/10/16 04:16:50;;;;;;;67.40;10.80;;;13.70;99.90;;;;;;5075001;28;20164;-88
2022/10/16 04:19:16;;;;;;;67.53;12.70;;;13.70;99.90;;;;;;5074953;28;20179;-88
2022/10/16 04:21:42;;;;;;;67.13;10.43;;;13.80;99.90;;;;;;5074911;28;20536;-88
2022/10/16 04:24:07;;;;;;;66.10;10.37;;;13.80;99.90;;;;;;5075146;28;20171;-88
2022/10/16 04:26:33;;;;;;;70.20;10.27;;;13.80;99.90;;;;;;5056866;28;20174;-87
2022/10/16 04:28:59;;;;;;;67.90;10.80;;;13.80;99.90;;;;;;5074845;28;20188;-87
2022/10/16 04:31:24;;;;;;;67.13;10.37;;;13.80;99.90;;;;;;5074829;28;20219;-87
2022/10/16 04:33:50;;;;;;;68.57;13.40;;;13.70;99.90;;;;;;5074693;28;20164;-87
2022/10/16 04:36:16;;;;;;;66.77;10.50;;;13.70;99.90;;;;;;5074922;28;20164;-87
2022/10/16 04:38:41;;;;;;;67.97;13.30;;;13.70;99.90;;;;;;5074538;28;20183;-87
2022/10/16 04:41:08;;;;;;;67.70;11.20;;;13.70;99.90;;;;;;5074844;28;20175;-87
2022/10/16 04:43:34;;;;;;;68.00;14.70;;;13.70;99.90;;;;;;5074480;28;20634;-87
2022/10/16 04:45:59;;;;;;;70.60;14.37;;;13.60;99.90;;;;;;5074911;28;20456;-87
2022/10/16 04:48:25;;;;;;;70.90;19.17;;;13.60;99.90;;;;;;5074495;28;20482;-87
2022/10/16 04:50:51;;;;;;;72.57;25.93;;;13.60;99.90;;;;;;5074292;28;20188;-87
2022/10/16 04:53:16;;;;;;;71.30;21.90;;;13.60;99.90;;;;;;5056424;28;20168;-87
2022/10/16 04:55:43;;;;;;;69.03;13.30;;;13.60;99.90;;;;;;5074219;28;20242;-87
2022/10/16 04:58:09;;;;;;;67.97;11.73;;;13.60;99.90;;;;;;5056245;28;20860;-87
2022/10/16 05:00:35;;;;;;;68.60;9.50;;;13.70;99.90;;;;;;5074106;28;20485;-87
2022/10/16 05:03:01;;;;;;;69.30;11.73;;;13.70;99.90;;;;;;5074117;28;20716;-87
2022/10/16 05:05:27;;;;;;;67.80;10.27;;;13.70;99.90;;;;;;5074230;28;20402;-87
2022/10/16 05:07:53;;;;;;;70.40;13.73;;;13.70;99.90;;;;;;5074437;28;20437;-87
2022/10/16 05:10:19;;;;;;;67.80;11.90;;;13.70;99.90;;;;;;5074001;28;20417;-87
2022/10/16 05:12:46;;;;;;;71.77;14.87;;;13.60;99.90;;;;;;5188968;22;20221;-86
2022/10/16 05:15:11;;;;;;;71.37;12.80;;;13.70;99.90;;;;;;5139515;27;20452;-86
2022/10/16 05:17:37;;;;;;;72.63;15.13;;;13.70;99.90;;;;;;5139502;27;20395;-86
2022/10/16 05:20:03;;;;;;;68.47;12.93;;;13.70;99.90;;;;;;5138605;27;20572;-86
2022/10/16 05:22:29;;;;;;;69.53;13.13;;;13.70;99.90;;;;;;5138057;27;20275;-86
2022/10/16 05:24:55;;;;;;;68.27;14.50;;;13.70;99.90;;;;;;5139287;27;20508;-86
2022/10/16 05:27:21;;;;;;;70.67;18.33;;;13.70;99.90;;;;;;5121577;27;20408;-86
2022/10/16 05:29:47;;;;;;;68.53;15.30;;;13.60;99.90;;;;;;5121052;27;20225;-86
2022/10/16 05:32:18;;;;;;;69.50;13.40;;;13.70;99.90;;;;;;5137987;27;20197;-86
2022/10/16 05:34:44;;;;;;;69.40;11.63;;;13.70;99.90;;;;;;5138260;27;20457;-86
2022/10/16 05:37:11;;;;;;;66.47;10.70;;;13.60;99.90;;;;;;5138163;27;20410;-86
2022/10/16 05:39:37;;;;;;;67.50;13.03;;;13.60;99.90;;;;;;5120970;27;20795;-86
2022/10/16 05:42:09;;;;;;;68.30;12.43;;;13.50;99.90;;;;;;5139506;27;20399;-86
2022/10/16 05:44:34;;;;;;;67.90;12.20;;;13.50;99.90;;;;;;5139934;27;20408;-86
2022/10/16 05:47:00;;;;;;;68.47;14.90;;;13.40;99.90;;;;;;5122254;27;20445;-86
2022/10/16 05:49:26;;;;;;;68.60;11.40;;;13.40;99.90;;;;;;5140191;27;20655;-86
2022/10/16 05:51:51;;;;;;;69.40;14.87;;;13.40;99.90;;;;;;5139931;27;20306;-86
2022/10/16 05:54:17;;;;;;;69.30;11.80;;;13.30;99.90;;;;;;5103978;27;20173;-86
2022/10/16 05:56:43;;;;;;;67.50;11.00;;;13.30;99.90;;;;;;5138969;27;20158;-86
2022/10/16 05:59:08;;;;;;;69.80;14.63;;;13.30;99.90;;;;;;5138447;27;20277;-86
2022/10/16 06:01:35;;;;;;;68.87;13.50;;;13.20;99.90;;;;;;5138396;27;20400;-86
2022/10/16 06:04:01;;;;;;;70.97;15.60;;;13.20;99.90;;;;;;5119971;28;20218;-86
2022/10/16 06:06:29;;;;;;;71.73;18.23;;;13.20;99.90;;;;;;5137943;27;20402;-87
2022/10/16 06:08:56;;;;;;;71.63;21.20;;;13.20;99.90;;;;;;5137698;27;20423;-86
2022/10/16 06:11:26;;;;;;;70.50;19.37;;;13.20;99.90;;;;;;5119417;28;20439;-86
2022/10/16 06:13:53;;;;;;;71.47;19.37;;;13.20;99.90;;;;;;5137658;28;20471;-86
2022/10/16 06:16:22;;;;;;;71.87;17.87;;;13.20;99.90;;;;;;5137593;28;20394;-86
2022/10/16 06:18:47;;;;;;;73.33;17.67;;;13.20;99.90;;;;;;5138351;28;20415;-86
2022/10/16 06:21:19;;;;;;;72.17;22.13;;;13.10;99.90;;;;;;5118901;28;20411;-86
2022/10/16 06:23:51;;;;;;;73.67;24.17;;;13.10;99.90;;;;;;5119867;28;20189;-86
2022/10/16 06:26:19;;;;;;;76.50;28.53;;;13.20;99.90;;;;;;5119654;28;20405;-86
2022/10/16 06:28:45;;;;;;;79.03;35.43;;;13.20;99.90;;;;;;5119364;28;20420;-86
2022/10/16 06:31:12;;;;;;;78.53;37.07;;;13.20;99.90;;;;;;5138114;28;21016;-86
2022/10/16 06:33:39;;;;;;;76.47;33.77;;;13.30;99.90;;;;;;5138556;28;20478;-86
2022/10/16 06:36:18;;;;;;;79.10;37.20;;;13.30;99.90;;;;;;5138093;28;20918;-86
2022/10/16 06:38:44;;;;;;;76.00;34.30;;;13.40;99.90;;;;;;5119834;28;20926;-86
2022/10/16 06:41:15;;;;;;;75.27;31.23;;;13.40;99.90;;;;;;5139133;28;20456;-86
2022/10/16 06:43:41;;;;;;;78.33;37.13;;;13.40;99.90;;;;;;5119213;28;20161;-86
2022/10/16 06:46:09;;;;;;;76.00;34.30;;;13.50;99.90;;;;;;5137277;28;20403;-86
2022/10/16 06:48:36;;;;;;;76.27;34.23;;;13.50;99.90;;;;;;5137563;28;20457;-86
2022/10/16 06:51:04;;;;;;;76.10;34.73;;;13.60;99.90;;;;;;5118400;28;20447;-86
2022/10/16 06:53:35;;;;;;;76.63;35.43;;;13.60;99.90;;;;;;5120246;27;20470;-86
2022/10/16 06:56:29;;;;;;;79.70;39.53;;;13.70;99.90;;;;;;5124029;27;20890;-86
2022/10/16 06:58:55;;;;;;;79.50;35.43;;;13.80;99.90;;;;;;5119070;27;20427;-86
2022/10/16 07:01:23;;;;;;;77.47;31.10;;;13.90;99.90;;;;;;5141300;27;20395;-87
2022/10/16 07:03:49;;;;;;;77.27;34.73;;;13.90;99.90;;;;;;5122735;27;20647;-86
2022/10/16 07:06:17;;;;;;;78.90;31.50;;;13.90;99.90;;;;;;5122619;27;20414;-86
2022/10/16 07:08:44;;;;;;;74.37;24.57;;;14.00;99.90;;;;;;5140499;27;20474;-86
2022/10/16 07:11:16;;;;;;;74.10;27.07;;;14.10;99.90;;;;;;5140208;27;20446;-86
2022/10/16 07:13:44;;;;;;;71.47;20.50;;;14.10;99.90;;;;;;5122802;27;20790;-86
2022/10/16 07:16:11;;;;;;;73.77;27.70;;;14.20;99.90;;;;;;5140686;27;20440;-86
2022/10/16 07:18:41;;;;;;;71.97;22.80;;;14.20;99.90;;;;;;5122096;27;20431;-86
2022/10/16 07:21:10;;;;;;;78.30;19.73;;;14.30;99.90;;;;;;5121727;27;20396;-86
2022/10/16 07:23:36;;;;;;;69.53;13.47;;;14.30;99.90;;;;;;5140948;27;20403;-86
2022/10/16 07:26:02;;;;;;;69.00;14.67;;;14.40;99.90;;;;;;5141492;27;20403;-86
2022/10/16 07:28:28;;;;;;;68.97;12.10;;;14.40;99.90;;;;;;5122314;27;20186;-86
2022/10/16 07:30:54;;;;;;;68.53;10.77;;;14.50;99.90;;;;;;5122606;27;20447;-86
2022/10/16 07:33:20;;;;;;;69.27;13.20;;;14.50;99.90;;;;;;5122027;27;20499;-86
2022/10/16 07:35:54;;;;;;;69.13;14.53;;;14.50;99.90;;;;;;5121824;27;20162;-86
2022/10/16 07:38:21;;;;;;;67.97;11.83;;;14.50;99.90;;;;;;5140034;27;20786;-86
2022/10/16 07:40:57;;;;;;;67.50;10.73;;;14.50;99.90;;;;;;5120762;27;20407;-86
2022/10/16 07:43:23;;;;;;;67.40;10.00;;;14.50;99.90;;;;;;5121436;27;20440;-86
2022/10/16 07:45:52;;;;;;;67.50;11.07;;;14.50;99.90;;;;;;5121499;27;20412;-86
2022/10/16 07:48:18;;;;;;;67.07;11.20;;;14.50;99.90;;;;;;5139445;27;20428;-86
2022/10/16 07:50:45;;;;;;;70.70;12.60;;;14.50;99.90;;;;;;5140248;27;20426;-86
2022/10/16 07:53:11;;;;;;;69.57;11.67;;;14.50;99.90;;;;;;5139778;27;20893;-86
2022/10/16 07:55:37;;;;;;;71.70;12.63;;;14.50;99.90;;;;;;5120611;27;20399;-86
2022/10/16 07:58:04;;;;;;;70.87;12.23;;;14.50;99.90;;;;;;5138910;27;20812;-86
2022/10/16 08:00:30;;;;;;;71.33;11.80;;;14.50;99.90;;;;;;5119908;27;20410;-86
2022/10/16 08:02:59;;;;;;;71.07;15.00;;;14.40;99.90;;;;;;5120756;27;20402;-86
2022/10/16 08:05:26;;;;;;;71.10;15.90;;;14.40;99.90;;;;;;5119715;27;20418;-86
2022/10/16 08:07:56;;;;;;;70.17;13.93;;;14.40;99.90;;;;;;5121632;27;20396;-86
2022/10/16 08:10:23;;;;;;;72.70;15.03;;;14.40;99.90;;;;;;5141482;27;20397;-87
2022/10/16 08:12:49;;;;;;;69.03;14.50;;;14.40;99.90;;;;;;5141308;27;20468;-86
2022/10/16 08:15:14;;;;;;;71.50;15.50;;;14.50;99.90;;;;;;5141297;27;20490;-86
2022/10/16 08:17:40;;;;;;;71.63;18.10;;;14.50;99.90;;;;;;5142041;27;20162;-86
2022/10/16 08:20:06;;;;;;;69.90;15.63;;;14.50;99.90;;;;;;5122716;27;20661;-86
2022/10/16 08:22:32;;;;;;;73.60;22.53;;;14.70;99.90;;;;;;5142573;27;20190;-87
2022/10/16 08:24:57;;;;;;;73.70;18.93;;;14.70;99.90;;;;;;5124646;27;20480;-86
2022/10/16 08:27:23;;;;;;;71.60;20.47;;;14.80;99.90;;;;;;5122998;27;20265;-86
2022/10/16 08:29:49;;;;;;;71.23;19.50;;;14.90;99.90;;;;;;5139825;27;20186;-86
2022/10/16 08:32:15;;;;;;;69.87;19.00;;;14.90;99.90;;;;;;5119944;27;20201;-85
2022/10/16 08:34:41;;;;;;;72.17;12.37;;;15.00;99.90;;;;;;5137466;27;20162;-85
2022/10/16 08:37:07;;;;;;;69.07;15.13;;;15.10;99.90;;;;;;5119168;27;20849;-86
2022/10/16 08:39:33;;;;;;;68.63;11.67;;;15.10;99.90;;;;;;5118979;27;20189;-86
2022/10/16 08:42:23;;;;;;;69.03;14.70;;;15.20;99.90;;;;;;5137317;27;20751;-85
2022/10/16 08:45:15;;;;;;;73.00;13.20;;;15.30;99.90;;;;;;5137614;27;20419;-86
2022/10/16 08:47:54;;;;;;;69.77;10.70;;;15.40;99.90;;;;;;5138043;27;20384;-86
2022/10/16 08:50:27;;;;;;;69.50;10.33;;;15.40;99.90;;;;;;5136571;27;20391;-86
2022/10/16 08:52:54;;;;;;;67.50;10.27;;;15.50;99.90;;;;;;5118342;27;20491;-86
2022/10/16 08:55:34;;;;;;;67.63;12.90;;;15.60;99.90;;;;;;5136578;27;20396;-86
2022/10/16 08:58:22;;;;;;;68.70;10.87;;;15.60;99.90;;;;;;5137256;27;20433;-86
2022/10/16 09:00:58;;;;;;;67.90;10.33;;;15.70;99.90;;;;;;5109379;27;20447;-86
2022/10/16 09:03:38;;;;;;;66.40;8.50;;;15.80;99.90;;;;;;5141442;27;20491;-86
2022/10/16 09:06:42;;;;;;;66.43;10.07;;;15.90;99.90;;;;;;5122721;27;20801;-86
2022/10/16 09:09:42;;;;;;;65.97;8.03;;;16.00;99.90;;;;;;5119842;27;20492;-86
2022/10/16 09:12:26;;;;;;;66.57;13.60;;;16.00;99.90;;;;;;5118465;27;20492;-86
2022/10/16 09:15:32;;;;;;;67.53;15.60;;;16.10;99.90;;;;;;5137297;27;20424;-85
2022/10/16 09:18:12;;;;;;;67.37;14.97;;;16.20;99.90;;;;;;5117896;27;20773;-86
2022/10/16 09:21:13;;;;;;;66.87;13.93;;;16.30;99.90;;;;;;5118135;27;20401;-86
2022/10/16 09:23:39;;;;;;;65.87;10.43;;;16.30;99.90;;;;;;5136672;27;20446;-86
2022/10/16 09:26:10;;;;;;;66.00;9.23;;;16.40;99.90;;;;;;5137102;27;20400;-86
2022/10/16 09:28:35;;;;;;;66.20;10.27;;;16.50;99.90;;;;;;5118262;27;20191;-86
2022/10/16 09:31:01;;;;;;;66.47;12.43;;;16.60;99.90;;;;;;5136780;27;20457;-86
2022/10/16 09:33:35;;;;;;;66.60;11.40;;;16.60;99.90;;;;;;5136714;27;20219;-87
2022/10/16 09:36:06;;;;;;;66.07;10.57;;;16.70;99.90;;;;;;5118615;27;20250;-86
2022/10/16 09:38:35;;;;;;;64.33;6.37;;;16.90;99.90;;;;;;5136780;27;20425;-86
2022/10/16 09:41:14;;;;;;;64.17;4.00;;;17.00;99.90;;;;;;5118574;27;20418;-86
2022/10/16 09:43:54;;;;;;;65.63;4.33;;;17.10;99.90;;;;;;5119051;27;20809;-86
2022/10/16 09:46:29;;;;;;;67.03;3.87;;;17.30;99.90;;;;;;5137061;27;20484;-86
2022/10/16 09:48:58;;;;;;;64.20;4.97;;;17.40;99.90;;;;;;5136933;27;20422;-86
2022/10/16 09:51:30;;;;;;;65.37;3.87;;;17.50;99.90;;;;;;5117814;27;20443;-86
2022/10/16 09:54:01;;;;;;;64.37;4.00;;;17.80;99.90;;;;;;5118564;27;20404;-86
2022/10/16 09:56:28;;;;;;;66.50;4.97;;;18.00;99.90;;;;;;5137180;27;20384;-86
2022/10/16 09:59:00;;;;;;;66.37;3.80;;;18.10;99.90;;;;;;5118484;27;20430;-86
2022/10/16 10:01:37;;;;;;;64.40;3.40;;;18.30;99.90;;;;;;5122542;27;20399;-86
2022/10/16 10:04:03;;;;;;;64.90;3.43;;;18.40;99.90;;;;;;5121885;27;20395;-86
2022/10/16 10:06:33;;;;;;;65.70;3.90;;;18.50;99.90;;;;;;5122489;28;20412;-87
2022/10/16 10:09:24;;;;;;;69.90;7.23;;;18.60;99.90;;;;;;5122007;27;20444;-86
2022/10/16 10:11:51;;;;;;;68.60;14.50;;;18.70;99.90;;;;;;5122752;28;20446;-86
2022/10/16 10:14:39;;;;;;;67.90;15.43;;;18.70;99.90;;;;;;5140271;27;20430;-86
2022/10/16 10:17:05;;;;;;;68.57;16.47;;;18.70;99.90;;;;;;5122935;28;20399;-86
2022/10/16 10:19:47;;;;;;;68.90;15.50;;;18.70;99.90;;;;;;5118398;28;20446;-86
2022/10/16 10:22:26;;;;;;;67.80;12.60;;;18.80;99.90;;;;;;5118886;28;20506;-86
2022/10/16 10:25:13;;;;;;;71.30;8.20;;;19.00;76.10;;;;;;5139017;28;20437;-86
2022/10/16 10:27:57;;;;;;;66.07;6.03;;;19.40;70.40;;;;;;5139835;27;20391;-86
2022/10/16 10:30:53;;;;;;;66.43;7.03;;;19.50;56.70;;;;;;5142100;27;20462;-86
2022/10/16 10:33:26;;;;;;;66.20;6.53;;;19.50;52.90;;;;;;5122042;27;20399;-86
2022/10/16 10:35:52;;;;;;;65.77;6.10;;;19.40;51.10;;;;;;5141573;27;20380;-86
2022/10/16 10:38:33;;;;;;;71.70;7.20;;;19.10;48.60;;;;;;5123994;27;20427;-86
2022/10/16 10:41:21;;;;;;;65.83;5.90;;;19.10;58.70;;;;;;5132113;27;20181;-86
2022/10/16 10:44:07;;;;;;;67.10;6.73;;;19.10;68.40;;;;;;5149463;27;20731;-86
2022/10/16 10:46:49;;;;;;;67.20;7.80;;;19.40;57.30;;;;;;5129092;27;20763;-86
2022/10/16 10:49:31;;;;;;;70.17;7.30;;;19.50;47.60;;;;;;5124690;27;20431;-86
2022/10/16 10:52:18;;;;;;;69.83;7.70;;;19.80;51.00;;;;;;5143798;27;20494;-86
2022/10/16 10:54:49;;;;;;;66.00;5.27;;;20.20;34.50;;;;;;5123753;27;20402;-85
2022/10/16 10:57:24;;;;;;;67.60;6.37;;;20.10;21.70;;;;;;5142407;27;20385;-85
2022/10/16 11:00:15;;;;;;;66.07;3.87;;;20.30;25.80;;;;;;5123805;27;20423;-86
2022/10/16 11:03:03;;;;;;;66.60;5.33;;;20.50;28.00;;;;;;5142478;27;20379;-86
2022/10/16 11:05:35;;;;;;;66.97;3.13;;;20.30;20.60;;;;;;5141882;27;20390;-86
2022/10/16 11:08:13;;;;;;;67.67;2.87;;;20.50;20.10;;;;;;5142134;27;20388;-86
2022/10/16 11:11:04;;;;;;;65.37;2.90;;;20.80;17.90;;;;;;5142311;27;20389;-86
2022/10/16 11:13:54;;;;;;;65.67;2.20;;;20.70;9.00;;;;;;5182231;22;20650;-86
2022/10/16 11:16:27;;;;;;;65.90;2.13;;;20.50;11.80;;;;;;5079300;28;20425;-85
2022/10/16 11:19:08;;;;;;;66.63;2.53;;;20.40;14.10;;;;;;5096525;28;20450;-85
2022/10/16 11:21:50;;;;;;;65.40;2.30;;;20.20;20.30;;;;;;5096980;28;20376;-85
2022/10/16 11:24:35;;;;;;;67.57;3.67;;;20.40;24.20;;;;;;5096632;28;20390;-85
2022/10/16 11:27:07;;;;;;;65.57;3.77;;;20.70;20.30;;;;;;5096472;28;20417;-85
2022/10/16 11:29:42;;;;;;;66.77;4.57;;;20.80;10.40;;;;;;5096823;28;20416;-85
2022/10/16 11:32:23;;;;;;;66.60;4.73;;;20.80;7.40;;;;;;5096615;28;20434;-85
2022/10/16 11:34:55;;;;;;;68.60;6.20;;;21.00;7.80;;;;;;5096431;28;20381;-85
2022/10/16 11:37:25;;;;;;;68.00;6.03;;;20.90;7.70;;;;;;5096212;28;20385;-85
2022/10/16 11:39:57;;;;;;;68.40;6.53;;;20.90;7.70;;;;;;5095382;28;20416;-85
2022/10/16 11:42:31;;;;;;;65.93;4.13;;;20.90;11.20;;;;;;5096522;28;20391;-85
2022/10/16 11:45:00;;;;;;;66.07;5.23;;;20.90;11.50;;;;;;5096520;28;20383;-85
2022/10/16 11:47:43;;;;;;;66.27;5.50;;;20.80;9.50;;;;;;5095961;28;20402;-85
2022/10/16 11:50:32;;;;;;;67.80;7.00;;;21.20;9.10;;;;;;5096453;28;20382;-85
2022/10/16 11:53:07;;;;;;;67.87;7.37;;;21.30;1.00;;;;;;5096133;28;20837;-85
2022/10/16 11:55:37;;;;;;;67.27;5.73;;;21.40;1.00;;;;;;5096036;28;20375;-85
2022/10/16 11:58:15;;;;;;;68.10;6.60;;;21.60;1.00;;;;;;5095984;28;20440;-85
2022/10/16 12:01:05;;;;;;;67.47;6.00;;;21.60;1.00;;;;;;5096094;28;20377;-85
2022/10/16 12:03:34;;;;;;;68.20;8.63;;;21.20;1.00;;;;;;5095800;28;20438;-85
2022/10/16 12:06:06;;;;;;;68.07;6.87;;;21.00;1.00;;;;;;5096265;28;20458;-85
2022/10/16 12:08:34;;;;;;;71.03;9.10;;;20.90;1.00;;;;;;5095605;28;20465;-85
2022/10/16 12:11:34;;;;;;;72.00;6.90;;;20.80;1.00;;;;;;5096555;28;20962;-85
2022/10/16 12:14:12;;;;;;;68.60;6.80;;;20.60;1.00;;;;;;5096066;28;20511;-85
2022/10/16 12:16:50;;;;;;;67.77;8.07;;;20.50;1.00;;;;;;5097719;28;20421;-85
2022/10/16 12:19:17;;;;;;;70.40;10.53;;;20.40;2.20;;;;;;5095903;28;20944;-85
2022/10/16 12:21:44;;;;;;;68.20;8.47;;;20.40;4.60;;;;;;5095310;28;20395;-85
2022/10/16 12:24:40;;;;;;;68.80;7.90;;;20.40;5.40;;;;;;5095331;28;20491;-85
2022/10/16 12:27:23;;;;;;;68.23;8.10;;;20.40;6.30;;;;;;5095437;28;20405;-85
2022/10/16 12:29:56;;;;;;;67.30;6.90;;;20.50;7.80;;;;;;5095069;28;20425;-85
2022/10/16 12:32:37;;;;;;;67.13;5.60;;;20.40;1.40;;;;;;5095808;28;20523;-85
2022/10/16 12:35:06;;;;;;;66.73;6.67;;;20.40;1.00;;;;;;5095310;28;20783;-85
2022/10/16 12:37:37;;;;;;;66.57;4.80;;;20.40;1.50;;;;;;5095242;28;20396;-85
2022/10/16 12:40:34;;;;;;;67.00;4.80;;;20.50;1.00;;;;;;5076825;28;20429;-85
2022/10/16 12:43:34;;;;;;;70.10;6.10;;;20.60;1.00;;;;;;5078298;28;20499;-85
2022/10/16 12:46:19;;;;;;;68.00;9.10;;;20.70;1.00;;;;;;5066024;28;20416;-85
2022/10/16 12:48:46;;;;;;;68.50;10.07;;;20.60;1.60;;;;;;5095115;28;20405;-85
2022/10/16 12:51:25;;;;;;;69.53;11.03;;;20.50;5.30;;;;;;5093634;28;20444;-85
2022/10/16 12:54:15;;;;;;;69.97;8.77;;;20.40;8.70;;;;;;5094721;28;20390;-85